createdAt,value
2023-03-22T00:00:27.507Z,7.28
2023-03-22T00:02:56.743Z,5.35
2023-03-22T00:05:23.925Z,8.52
2023-03-22T00:07:54.112Z,7.20
2023-03-22T00:10:21.388Z,8.43
2023-03-22T00:12:48.495Z,9.43
2023-03-22T00:15:15.667Z,7.85
2023-03-22T00:17:44.669Z,6.35
2023-03-22T00:20:12.678Z,6.85
2023-03-22T00:22:39.997Z,8.00
2023-03-22T00:25:07.268Z,8.00
2023-03-22T00:27:34.458Z,5.55
2023-03-22T00:30:01.544Z,6.88
2023-03-22T00:32:28.679Z,6.55
2023-03-22T00:34:55.753Z,7.70
2023-03-22T00:37:22.878Z,6.65
2023-03-22T00:39:50.014Z,7.38
2023-03-22T00:42:17.159Z,7.72
2023-03-22T00:44:44.297Z,9.10
2023-03-22T00:47:12.250Z,14.45
2023-03-22T00:49:39.341Z,9.00
2023-03-22T00:52:06.444Z,7.13
2023-03-22T00:54:33.551Z,9.10
2023-03-22T00:57:00.773Z,8.23
2023-03-22T00:59:28.427Z,10.10
2023-03-22T01:01:57.976Z,7.88
2023-03-22T01:04:26.238Z,6.13
2023-03-22T01:06:59.345Z,8.65
2023-03-22T01:09:28.967Z,7.97
2023-03-22T01:11:56.601Z,8.68
2023-03-22T01:14:23.999Z,6.10
2023-03-22T01:16:51.311Z,11.88
2023-03-22T01:19:18.481Z,6.90
2023-03-22T01:21:45.922Z,9.93
2023-03-22T01:24:13.025Z,6.20
2023-03-22T01:26:40.218Z,7.18
2023-03-22T01:29:07.386Z,8.00
2023-03-22T01:31:34.548Z,7.80
2023-03-22T01:34:01.798Z,6.82
2023-03-22T01:36:28.893Z,6.20
2023-03-22T01:38:56.009Z,5.43
2023-03-22T01:41:23.220Z,6.13
2023-03-22T01:44:10.144Z,8.38
2023-03-22T01:46:37.359Z,4.97
2023-03-22T01:49:05.856Z,6.63
2023-03-22T01:51:33.102Z,6.45
2023-03-22T01:54:06.736Z,16.48
2023-03-22T01:56:35.925Z,8.25
2023-03-22T01:59:03.700Z,6.88
2023-03-22T02:01:31.332Z,10.32
2023-03-22T02:04:12.213Z,8.45
2023-03-22T02:06:39.706Z,11.07
2023-03-22T02:09:08.185Z,5.85
2023-03-22T02:11:41.532Z,8.82
2023-03-22T02:14:14.417Z,10.75
2023-03-22T02:17:00.090Z,10.48
2023-03-22T02:19:49.016Z,7.15
2023-03-22T02:22:21.740Z,9.38
2023-03-22T02:25:09.165Z,6.78
2023-03-22T02:27:53.748Z,7.60
2023-03-22T02:30:20.845Z,7.78
2023-03-22T02:33:00.671Z,8.18
2023-03-22T02:35:34.264Z,9.00
2023-03-22T02:38:16.082Z,11.40
2023-03-22T02:41:08.149Z,10.40
2023-03-22T02:43:38.526Z,11.18
2023-03-22T02:46:35.679Z,13.00
2023-03-22T02:49:23.158Z,13.38
2023-03-22T02:51:56.534Z,13.00
2023-03-22T02:54:28.709Z,15.25
2023-03-22T02:57:05.969Z,14.02
2023-03-22T02:59:37.440Z,13.93
2023-03-22T03:02:05.567Z,15.93
2023-03-22T03:04:35.890Z,15.70
2023-03-22T03:07:06.019Z,16.27
2023-03-22T03:09:33.861Z,17.23
2023-03-22T03:12:00.968Z,17.35
2023-03-22T03:14:29.597Z,14.57
2023-03-22T03:17:08.430Z,16.33
2023-03-22T03:19:46.375Z,14.98
2023-03-22T03:22:31.585Z,14.60
2023-03-22T03:25:24.962Z,16.92
2023-03-22T03:28:03.617Z,14.98
2023-03-22T03:30:39.078Z,16.83
2023-03-22T03:33:09.442Z,16.60
2023-03-22T03:35:51.883Z,17.58
2023-03-22T03:38:30.008Z,20.27
2023-03-22T03:41:02.782Z,18.27
2023-03-22T03:43:29.912Z,15.10
2023-03-22T03:45:57.232Z,15.82
2023-03-22T03:48:27.325Z,16.55
2023-03-22T03:50:54.987Z,15.55
2023-03-22T03:53:22.149Z,15.32
2023-03-22T03:55:49.298Z,19.40
2023-03-22T03:58:16.729Z,18.50
2023-03-22T04:00:46.008Z,17.75
2023-03-22T04:03:13.465Z,14.73
2023-03-22T04:05:40.664Z,17.10
2023-03-22T04:08:07.944Z,15.82
2023-03-22T04:10:35.197Z,17.48
2023-03-22T04:13:02.431Z,14.88
2023-03-22T04:15:29.614Z,15.38
2023-03-22T04:17:56.685Z,13.77
2023-03-22T04:20:26.145Z,17.05
2023-03-22T04:22:53.267Z,15.65
2023-03-22T04:25:22.729Z,14.15
2023-03-22T04:27:51.329Z,20.33
2023-03-22T04:30:20.038Z,16.77
2023-03-22T04:32:47.488Z,15.45
2023-03-22T04:35:15.134Z,14.05
2023-03-22T04:37:43.022Z,15.02
2023-03-22T04:40:16.453Z,13.65
2023-03-22T04:42:44.727Z,15.85
2023-03-22T04:45:12.289Z,13.23
2023-03-22T04:47:39.486Z,14.15
2023-03-22T04:50:07.385Z,12.73
2023-03-22T04:52:34.562Z,14.80
2023-03-22T04:55:01.715Z,13.38
2023-03-22T04:57:28.838Z,13.57
2023-03-22T04:59:55.989Z,11.45
2023-03-22T05:02:23.486Z,13.13
2023-03-22T05:04:50.854Z,13.37
2023-03-22T05:07:17.958Z,15.70
2023-03-22T05:09:45.047Z,11.43
2023-03-22T05:12:12.376Z,14.77
2023-03-22T05:14:39.478Z,14.25
2023-03-22T05:17:06.641Z,12.57
2023-03-22T05:19:33.777Z,12.77
2023-03-22T05:22:02.031Z,12.52
2023-03-22T05:24:32.440Z,9.02
2023-03-22T05:27:01.013Z,11.40
2023-03-22T05:29:28.528Z,14.67
2023-03-22T05:31:55.829Z,12.98
2023-03-22T05:34:23.000Z,11.93
2023-03-22T05:36:51.550Z,10.82
2023-03-22T05:39:19.011Z,11.85
2023-03-22T05:41:46.403Z,12.63
2023-03-22T05:44:13.513Z,11.57
2023-03-22T05:46:41.091Z,12.98
2023-03-22T05:49:09.345Z,11.55
2023-03-22T05:51:41.502Z,11.73
2023-03-22T05:54:09.609Z,10.73
2023-03-22T05:56:36.950Z,10.05
2023-03-22T05:59:04.840Z,9.60
2023-03-22T06:01:33.416Z,8.98
2023-03-22T06:04:00.780Z,12.65
2023-03-22T06:06:28.115Z,11.40
2023-03-22T06:09:06.982Z,11.80
2023-03-22T06:11:41.456Z,9.48
2023-03-22T06:14:08.595Z,13.48
2023-03-22T06:16:35.907Z,9.05
2023-03-22T06:19:03.042Z,7.87
2023-03-22T06:21:30.329Z,12.02
2023-03-22T06:23:57.526Z,10.43
2023-03-22T06:26:24.667Z,10.60
2023-03-22T06:28:51.875Z,11.57
2023-03-22T06:31:18.960Z,10.83
2023-03-22T06:33:46.446Z,8.27
2023-03-22T06:36:13.537Z,14.02
2023-03-22T06:38:40.957Z,11.55
2023-03-22T06:41:08.194Z,8.13
2023-03-22T06:43:35.344Z,12.10
2023-03-22T06:46:02.482Z,7.75
2023-03-22T06:48:29.713Z,7.85
2023-03-22T06:50:56.968Z,10.15
2023-03-22T06:53:24.106Z,8.90
2023-03-22T06:55:55.221Z,6.50
2023-03-22T06:58:22.570Z,11.13
2023-03-22T07:00:49.838Z,8.40
2023-03-22T07:03:16.986Z,10.38
2023-03-22T07:05:44.123Z,7.80
2023-03-22T07:08:12.003Z,7.07
2023-03-22T07:10:39.449Z,8.85
2023-03-22T07:13:06.724Z,8.60
2023-03-22T07:15:34.365Z,7.40
2023-03-22T07:18:02.379Z,7.32
2023-03-22T07:20:29.525Z,8.80
2023-03-22T07:22:57.261Z,9.52
2023-03-22T07:25:24.497Z,7.90
2023-03-22T07:27:51.610Z,8.85
2023-03-22T07:30:18.693Z,6.68
2023-03-22T07:32:45.865Z,8.87
2023-03-22T07:35:13.022Z,6.60
2023-03-22T07:37:40.538Z,7.80
2023-03-22T07:40:07.936Z,8.60
2023-03-22T07:42:35.142Z,7.40
2023-03-22T07:45:02.567Z,8.03
2023-03-22T07:47:43.715Z,6.82
2023-03-22T07:50:14.460Z,6.32
2023-03-22T07:52:42.274Z,6.97
2023-03-22T07:55:10.989Z,7.20
2023-03-22T07:57:38.354Z,8.93
2023-03-22T08:00:07.018Z,9.50
2023-03-22T08:02:34.178Z,10.75
2023-03-22T08:05:01.566Z,5.60
2023-03-22T08:07:30.246Z,8.95
2023-03-22T08:09:58.365Z,8.63
2023-03-22T08:12:28.037Z,8.50
2023-03-22T08:14:55.196Z,10.00
2023-03-22T08:17:22.400Z,10.18
2023-03-22T08:19:50.048Z,5.93
2023-03-22T08:22:17.270Z,5.47
2023-03-22T08:24:44.361Z,8.93
2023-03-22T08:27:12.322Z,8.05
2023-03-22T08:29:39.583Z,7.22
2023-03-22T08:32:06.837Z,11.35
2023-03-22T08:34:37.609Z,6.33
2023-03-22T08:37:06.139Z,6.57
2023-03-22T08:39:33.361Z,10.50
2023-03-22T08:42:00.671Z,10.77
2023-03-22T08:44:27.799Z,8.70
2023-03-22T08:46:55.622Z,9.00
2023-03-22T08:49:22.874Z,10.05
2023-03-22T08:51:50.146Z,8.80
2023-03-22T08:54:17.253Z,9.77
2023-03-22T08:56:44.645Z,8.90
2023-03-22T08:59:11.796Z,10.10
2023-03-22T09:01:39.043Z,7.78
2023-03-22T09:04:07.437Z,8.73
2023-03-22T09:06:37.403Z,9.02
2023-03-22T09:09:04.586Z,8.82
2023-03-22T09:11:31.744Z,8.27
2023-03-22T09:13:58.937Z,7.30
2023-03-22T09:16:26.170Z,8.98
2023-03-22T09:18:53.326Z,7.25
2023-03-22T09:21:21.807Z,7.97
2023-03-22T09:23:50.343Z,8.70
2023-03-22T09:26:17.647Z,5.43
2023-03-22T09:28:46.740Z,8.35
2023-03-22T09:31:21.265Z,8.35
2023-03-22T09:33:48.626Z,11.05
2023-03-22T09:36:15.861Z,8.50
2023-03-22T09:38:43.037Z,9.27
2023-03-22T09:41:16.705Z,8.48
2023-03-22T09:43:49.194Z,8.82
2023-03-22T09:46:37.932Z,10.25
2023-03-22T09:49:13.392Z,7.60
2023-03-22T09:51:42.015Z,8.60
2023-03-22T09:54:14.396Z,8.45
2023-03-22T09:56:41.618Z,7.75
2023-03-22T09:59:11.892Z,8.93
2023-03-22T10:02:00.065Z,9.27
2023-03-22T10:04:33.355Z,7.97
2023-03-22T10:07:07.259Z,9.18
2023-03-22T10:09:58.207Z,9.15
2023-03-22T10:12:25.950Z,11.85
2023-03-22T10:14:57.676Z,9.83
2023-03-22T10:17:26.156Z,9.88
2023-03-22T10:19:59.679Z,8.23
2023-03-22T10:22:38.456Z,9.40
2023-03-22T10:25:09.244Z,10.20
2023-03-22T10:27:36.891Z,10.83
2023-03-22T10:30:20.962Z,7.95
2023-03-22T10:33:04.986Z,9.75
2023-03-22T10:35:33.044Z,8.95
2023-03-22T10:38:01.694Z,10.82
2023-03-22T10:40:33.368Z,7.93
2023-03-22T10:43:03.873Z,13.57
2023-03-22T10:45:32.475Z,11.00
2023-03-22T10:48:01.251Z,8.23
2023-03-22T10:50:33.402Z,9.95
2023-03-22T10:53:06.075Z,11.07
2023-03-22T10:55:33.353Z,8.30
2023-03-22T10:58:12.838Z,8.25
2023-03-22T11:00:44.747Z,7.05
2023-03-22T11:03:23.520Z,8.32
2023-03-22T11:05:59.165Z,7.17
2023-03-22T11:08:26.302Z,7.35
2023-03-22T11:10:55.101Z,8.23
2023-03-22T11:13:24.423Z,7.93
2023-03-22T11:15:56.405Z,8.85
2023-03-22T11:18:23.657Z,10.97
2023-03-22T11:20:59.138Z,7.45
2023-03-22T11:23:27.042Z,7.82
2023-03-22T11:25:56.406Z,5.75
2023-03-22T11:28:36.505Z,6.32
2023-03-22T11:31:06.844Z,6.90
2023-03-22T11:33:34.020Z,6.63
2023-03-22T11:36:06.449Z,6.68
2023-03-22T11:38:38.479Z,8.27
2023-03-22T11:41:09.366Z,5.95
2023-03-22T11:43:37.786Z,7.63
2023-03-22T11:46:05.956Z,8.18
2023-03-22T11:48:33.811Z,5.22
2023-03-22T11:51:06.610Z,7.50
2023-03-22T11:53:34.938Z,9.52
2023-03-22T11:56:04.628Z,7.53
2023-03-22T11:58:37.719Z,8.27
2023-03-22T12:01:05.923Z,5.72
2023-03-22T12:03:39.293Z,5.78
2023-03-22T12:06:13.940Z,9.35
2023-03-22T12:08:43.989Z,5.60
2023-03-22T12:11:30.126Z,10.48
2023-03-22T12:14:16.091Z,5.72
2023-03-22T12:16:55.546Z,5.90
2023-03-22T12:19:40.953Z,6.72
2023-03-22T12:22:13.474Z,9.03
2023-03-22T12:24:42.410Z,7.55
2023-03-22T12:27:22.070Z,8.13
2023-03-22T12:29:52.943Z,7.68
2023-03-22T12:32:22.905Z,6.88
2023-03-22T12:34:55.126Z,6.47
2023-03-22T12:37:31.439Z,6.50
2023-03-22T12:40:05.807Z,7.10
2023-03-22T12:42:47.586Z,7.45
2023-03-22T12:45:20.557Z,7.90
2023-03-22T12:47:49.897Z,7.80
2023-03-22T12:50:26.213Z,10.70
2023-03-22T12:52:56.683Z,8.10
2023-03-22T12:55:26.470Z,10.23
2023-03-22T12:57:54.815Z,9.25
2023-03-22T13:00:27.413Z,7.70
2023-03-22T13:03:03.754Z,8.25
2023-03-22T13:05:33.525Z,6.90
2023-03-22T13:08:03.869Z,7.35
2023-03-22T13:10:31.418Z,7.40
2023-03-22T13:13:17.410Z,7.57
2023-03-22T13:16:03.588Z,8.00
2023-03-22T13:18:37.934Z,8.52
2023-03-22T13:21:11.547Z,7.85
2023-03-22T13:23:53.358Z,8.23
2023-03-22T13:26:21.356Z,9.70
2023-03-22T13:28:56.617Z,7.55
2023-03-22T13:31:34.858Z,8.27
2023-03-22T13:34:04.476Z,7.63
2023-03-22T13:36:32.425Z,9.15
2023-03-22T13:39:03.117Z,7.43
2023-03-22T13:41:31.485Z,7.72
2023-03-22T13:43:59.689Z,9.38
2023-03-22T13:46:29.908Z,7.72
2023-03-22T13:49:00.856Z,9.25
2023-03-22T13:51:34.628Z,9.17
2023-03-22T13:54:32.411Z,8.38
2023-03-22T13:57:01.520Z,7.00
2023-03-22T13:59:32.406Z,7.25
2023-03-22T14:02:18.401Z,6.63
2023-03-22T14:04:47.986Z,8.33
2023-03-22T14:07:19.518Z,6.32
2023-03-22T14:09:50.385Z,8.45
2023-03-22T14:12:17.504Z,7.13
2023-03-22T14:14:47.060Z,7.95
2023-03-22T14:17:18.713Z,11.07
2023-03-22T14:19:46.449Z,7.75
